sensor_id;sensor_type;location;lat;lon;timestamp;P1;durP1;ratioP1;P2;durP2;ratioP2
7074;SDS011;3578;51.568;6.932;2023-04-06T00:00:52;14.70;;;10.00;;
7074;SDS011;3578;51.568;6.932;2023-04-06T00:03:19;10.83;;;9.67;;
7074;SDS011;3578;51.568;6.932;2023-04-06T00:05:46;19.30;;;8.43;;
7074;SDS011;3578;51.568;6.932;2023-04-06T00:08:13;11.80;;;10.20;;
7074;SDS011;3578;51.568;6.932;2023-04-06T00:10:42;9.73;;;8.77;;
7074;SDS011;3578;51.568;6.932;2023-04-06T00:13:10;10.87;;;9.13;;
7074;SDS011;3578;51.568;6.932;2023-04-06T00:15:38;12.50;;;9.07;;
7074;SDS011;3578;51.568;6.932;2023-04-06T00:18:05;11.53;;;10.33;;
7074;SDS011;3578;51.568;6.932;2023-04-06T00:20:33;13.27;;;10.10;;
7074;SDS011;3578;51.568;6.932;2023-04-06T00:23:00;10.80;;;9.40;;
7074;SDS011;3578;51.568;6.932;2023-04-06T00:25:27;12.23;;;10.23;;
7074;SDS011;3578;51.568;6.932;2023-04-06T00:27:56;9.80;;;8.60;;
7074;SDS011;3578;51.568;6.932;2023-04-06T00:30:25;10.30;;;9.20;;
7074;SDS011;3578;51.568;6.932;2023-04-06T00:32:52;15.30;;;10.17;;
7074;SDS011;3578;51.568;6.932;2023-04-06T00:35:19;11.33;;;8.90;;
7074;SDS011;3578;51.568;6.932;2023-04-06T00:37:47;11.17;;;10.07;;
7074;SDS011;3578;51.568;6.932;2023-04-06T00:40:14;11.40;;;10.03;;
7074;SDS011;3578;51.568;6.932;2023-04-06T00:42:41;12.07;;;9.70;;
7074;SDS011;3578;51.568;6.932;2023-04-06T00:45:10;13.90;;;9.80;;
7074;SDS011;3578;51.568;6.932;2023-04-06T00:47:37;13.33;;;10.40;;
7074;SDS011;3578;51.568;6.932;2023-04-06T00:50:05;12.83;;;10.50;;
7074;SDS011;3578;51.568;6.932;2023-04-06T00:52:33;14.60;;;10.00;;
7074;SDS011;3578;51.568;6.932;2023-04-06T00:55:01;11.63;;;10.43;;
7074;SDS011;3578;51.568;6.932;2023-04-06T00:57:28;12.93;;;10.57;;
7074;SDS011;3578;51.568;6.932;2023-04-06T00:59:55;11.83;;;10.23;;
7074;SDS011;3578;51.568;6.932;2023-04-06T01:02:24;10.97;;;9.47;;
7074;SDS011;3578;51.568;6.932;2023-04-06T01:04:51;12.40;;;10.40;;
7074;SDS011;3578;51.568;6.932;2023-04-06T01:07:19;12.60;;;10.47;;
7074;SDS011;3578;51.568;6.932;2023-04-06T01:09:46;12.00;;;10.10;;
7074;SDS011;3578;51.568;6.932;2023-04-06T01:12:13;14.73;;;9.73;;
7074;SDS011;3578;51.568;6.932;2023-04-06T01:14:40;14.10;;;10.13;;
7074;SDS011;3578;51.568;6.932;2023-04-06T01:17:07;11.47;;;9.50;;
7074;SDS011;3578;51.568;6.932;2023-04-06T01:19:36;12.87;;;10.77;;
7074;SDS011;3578;51.568;6.932;2023-04-06T01:22:05;14.53;;;10.30;;
7074;SDS011;3578;51.568;6.932;2023-04-06T01:24:33;10.60;;;9.60;;
7074;SDS011;3578;51.568;6.932;2023-04-06T01:27:01;11.20;;;10.10;;
7074;SDS011;3578;51.568;6.932;2023-04-06T01:29:28;11.33;;;10.10;;
7074;SDS011;3578;51.568;6.932;2023-04-06T01:31:55;11.63;;;9.87;;
7074;SDS011;3578;51.568;6.932;2023-04-06T01:34:22;12.03;;;10.20;;
7074;SDS011;3578;51.568;6.932;2023-04-06T01:36:49;12.97;;;11.23;;
7074;SDS011;3578;51.568;6.932;2023-04-06T01:39:16;12.60;;;10.93;;
7074;SDS011;3578;51.568;6.932;2023-04-06T01:41:45;15.77;;;10.30;;
7074;SDS011;3578;51.568;6.932;2023-04-06T01:44:12;15.37;;;10.57;;
7074;SDS011;3578;51.568;6.932;2023-04-06T01:46:42;15.03;;;11.20;;
7074;SDS011;3578;51.568;6.932;2023-04-06T01:49:09;13.13;;;10.10;;
7074;SDS011;3578;51.568;6.932;2023-04-06T01:51:36;15.80;;;11.50;;
7074;SDS011;3578;51.568;6.932;2023-04-06T01:54:03;12.27;;;11.03;;
7074;SDS011;3578;51.568;6.932;2023-04-06T01:56:30;15.67;;;12.70;;
7074;SDS011;3578;51.568;6.932;2023-04-06T01:58:59;13.83;;;10.30;;
7074;SDS011;3578;51.568;6.932;2023-04-06T02:01:27;18.80;;;13.23;;
7074;SDS011;3578;51.568;6.932;2023-04-06T02:03:54;14.50;;;11.83;;
7074;SDS011;3578;51.568;6.932;2023-04-06T02:06:21;15.73;;;11.23;;
7074;SDS011;3578;51.568;6.932;2023-04-06T02:08:48;14.37;;;11.90;;
7074;SDS011;3578;51.568;6.932;2023-04-06T02:11:15;12.77;;;11.43;;
7074;SDS011;3578;51.568;6.932;2023-04-06T02:13:43;15.23;;;11.80;;
7074;SDS011;3578;51.568;6.932;2023-04-06T02:16:11;12.80;;;11.50;;
7074;SDS011;3578;51.568;6.932;2023-04-06T02:18:38;15.90;;;11.43;;
7074;SDS011;3578;51.568;6.932;2023-04-06T02:21:05;18.73;;;12.40;;
7074;SDS011;3578;51.568;6.932;2023-04-06T02:23:32;16.40;;;12.90;;
7074;SDS011;3578;51.568;6.932;2023-04-06T02:25:59;15.10;;;12.47;;
7074;SDS011;3578;51.568;6.932;2023-04-06T02:28:26;19.50;;;12.97;;
7074;SDS011;3578;51.568;6.932;2023-04-06T02:30:53;20.47;;;14.03;;
7074;SDS011;3578;51.568;6.932;2023-04-06T02:33:22;15.30;;;11.60;;
7074;SDS011;3578;51.568;6.932;2023-04-06T02:35:49;23.20;;;13.00;;
7074;SDS011;3578;51.568;6.932;2023-04-06T02:38:16;14.23;;;12.00;;
7074;SDS011;3578;51.568;6.932;2023-04-06T02:40:43;16.07;;;12.10;;
7074;SDS011;3578;51.568;6.932;2023-04-06T02:43:10;20.40;;;14.60;;
7074;SDS011;3578;51.568;6.932;2023-04-06T02:45:38;15.03;;;11.97;;
7074;SDS011;3578;51.568;6.932;2023-04-06T02:48:05;17.83;;;12.87;;
7074;SDS011;3578;51.568;6.932;2023-04-06T02:50:34;19.10;;;13.20;;
7074;SDS011;3578;51.568;6.932;2023-04-06T02:53:01;20.50;;;15.40;;
7074;SDS011;3578;51.568;6.932;2023-04-06T02:55:28;17.33;;;13.27;;
7074;SDS011;3578;51.568;6.932;2023-04-06T02:57:55;17.13;;;11.90;;
7074;SDS011;3578;51.568;6.932;2023-04-06T03:00:22;19.77;;;13.90;;
7074;SDS011;3578;51.568;6.932;2023-04-06T03:02:50;17.53;;;12.80;;
7074;SDS011;3578;51.568;6.932;2023-04-06T03:05:17;19.97;;;14.07;;
7074;SDS011;3578;51.568;6.932;2023-04-06T03:07:45;21.23;;;14.00;;
7074;SDS011;3578;51.568;6.932;2023-04-06T03:10:12;16.50;;;12.80;;
7074;SDS011;3578;51.568;6.932;2023-04-06T03:12:40;14.83;;;12.50;;
7074;SDS011;3578;51.568;6.932;2023-04-06T03:15:07;21.50;;;13.60;;
7074;SDS011;3578;51.568;6.932;2023-04-06T03:17:36;18.90;;;14.00;;
7074;SDS011;3578;51.568;6.932;2023-04-06T03:20:03;20.30;;;14.20;;
7074;SDS011;3578;51.568;6.932;2023-04-06T03:22:32;19.20;;;12.90;;
7074;SDS011;3578;51.568;6.932;2023-04-06T03:25:00;23.90;;;13.70;;
7074;SDS011;3578;51.568;6.932;2023-04-06T03:27:27;16.27;;;13.40;;
7074;SDS011;3578;51.568;6.932;2023-04-06T03:29:54;17.50;;;14.13;;
7074;SDS011;3578;51.568;6.932;2023-04-06T03:32:21;17.00;;;13.77;;
7074;SDS011;3578;51.568;6.932;2023-04-06T03:34:49;17.43;;;13.70;;
7074;SDS011;3578;51.568;6.932;2023-04-06T03:37:16;18.20;;;13.80;;
7074;SDS011;3578;51.568;6.932;2023-04-06T03:39:43;19.70;;;14.10;;
7074;SDS011;3578;51.568;6.932;2023-04-06T03:42:12;17.50;;;12.37;;
7074;SDS011;3578;51.568;6.932;2023-04-06T03:44:39;19.57;;;13.93;;
7074;SDS011;3578;51.568;6.932;2023-04-06T03:47:07;21.53;;;13.23;;
7074;SDS011;3578;51.568;6.932;2023-04-06T03:49:34;20.77;;;13.53;;
7074;SDS011;3578;51.568;6.932;2023-04-06T03:52:01;19.10;;;14.00;;
7074;SDS011;3578;51.568;6.932;2023-04-06T03:54:29;16.47;;;13.10;;
7074;SDS011;3578;51.568;6.932;2023-04-06T03:56:56;18.97;;;14.23;;
7074;SDS011;3578;51.568;6.932;2023-04-06T03:59:24;21.10;;;14.53;;
7074;SDS011;3578;51.568;6.932;2023-04-06T04:01:51;18.53;;;14.13;;
7074;SDS011;3578;51.568;6.932;2023-04-06T04:04:19;18.80;;;14.00;;
7074;SDS011;3578;51.568;6.932;2023-04-06T04:06:46;24.27;;;14.10;;
7074;SDS011;3578;51.568;6.932;2023-04-06T04:09:13;21.73;;;14.77;;
7074;SDS011;3578;51.568;6.932;2023-04-06T04:11:40;20.80;;;13.93;;
7074;SDS011;3578;51.568;6.932;2023-04-06T04:14:07;19.27;;;14.40;;
7074;SDS011;3578;51.568;6.932;2023-04-06T04:16:36;20.43;;;14.23;;
7074;SDS011;3578;51.568;6.932;2023-04-06T04:19:04;17.70;;;13.80;;
7074;SDS011;3578;51.568;6.932;2023-04-06T04:21:31;22.67;;;15.23;;
7074;SDS011;3578;51.568;6.932;2023-04-06T04:23:58;19.70;;;15.53;;
7074;SDS011;3578;51.568;6.932;2023-04-06T04:26:25;19.20;;;13.67;;
7074;SDS011;3578;51.568;6.932;2023-04-06T04:28:52;26.63;;;14.73;;
7074;SDS011;3578;51.568;6.932;2023-04-06T04:31:19;22.50;;;14.63;;
7074;SDS011;3578;51.568;6.932;2023-04-06T04:33:49;22.90;;;16.07;;
7074;SDS011;3578;51.568;6.932;2023-04-06T04:36:16;26.10;;;15.70;;
7074;SDS011;3578;51.568;6.932;2023-04-06T04:38:43;29.43;;;16.23;;
7074;SDS011;3578;51.568;6.932;2023-04-06T04:41:10;24.23;;;13.90;;
7074;SDS011;3578;51.568;6.932;2023-04-06T04:43:37;22.63;;;15.27;;
7074;SDS011;3578;51.568;6.932;2023-04-06T04:46:04;22.20;;;15.47;;
7074;SDS011;3578;51.568;6.932;2023-04-06T04:48:32;26.00;;;16.80;;
7074;SDS011;3578;51.568;6.932;2023-04-06T04:51:00;24.77;;;15.93;;
7074;SDS011;3578;51.568;6.932;2023-04-06T04:53:27;20.87;;;14.57;;
7074;SDS011;3578;51.568;6.932;2023-04-06T04:55:54;24.07;;;14.43;;
7074;SDS011;3578;51.568;6.932;2023-04-06T04:58:21;22.30;;;15.17;;
7074;SDS011;3578;51.568;6.932;2023-04-06T05:00:49;26.57;;;15.13;;
7074;SDS011;3578;51.568;6.932;2023-04-06T05:03:17;29.80;;;15.33;;
7074;SDS011;3578;51.568;6.932;2023-04-06T05:05:48;21.80;;;14.83;;
7074;SDS011;3578;51.568;6.932;2023-04-06T05:08:16;21.60;;;15.20;;
7074;SDS011;3578;51.568;6.932;2023-04-06T05:10:43;21.97;;;14.83;;
7074;SDS011;3578;51.568;6.932;2023-04-06T05:13:11;21.57;;;14.43;;
7074;SDS011;3578;51.568;6.932;2023-04-06T05:15:38;26.63;;;15.60;;
7074;SDS011;3578;51.568;6.932;2023-04-06T05:18:05;27.63;;;16.63;;
7074;SDS011;3578;51.568;6.932;2023-04-06T05:20:34;21.63;;;14.73;;
7074;SDS011;3578;51.568;6.932;2023-04-06T05:23:02;21.40;;;15.20;;
7074;SDS011;3578;51.568;6.932;2023-04-06T05:25:31;28.87;;;16.60;;
7074;SDS011;3578;51.568;6.932;2023-04-06T05:27:58;20.60;;;16.00;;
7074;SDS011;3578;51.568;6.932;2023-04-06T05:30:25;32.57;;;16.53;;
7074;SDS011;3578;51.568;6.932;2023-04-06T05:32:53;22.97;;;16.33;;
7074;SDS011;3578;51.568;6.932;2023-04-06T05:35:20;24.17;;;15.93;;
7074;SDS011;3578;51.568;6.932;2023-04-06T05:37:47;22.57;;;16.33;;
7074;SDS011;3578;51.568;6.932;2023-04-06T05:40:15;17.97;;;13.80;;
7074;SDS011;3578;51.568;6.932;2023-04-06T05:42:43;26.77;;;15.87;;
7074;SDS011;3578;51.568;6.932;2023-04-06T05:45:10;22.57;;;14.93;;
7074;SDS011;3578;51.568;6.932;2023-04-06T05:47:41;20.33;;;15.67;;
7074;SDS011;3578;51.568;6.932;2023-04-06T05:50:09;27.40;;;15.07;;
7074;SDS011;3578;51.568;6.932;2023-04-06T05:52:38;19.17;;;13.73;;
7074;SDS011;3578;51.568;6.932;2023-04-06T05:55:08;24.87;;;15.27;;
7074;SDS011;3578;51.568;6.932;2023-04-06T05:57:36;19.73;;;15.43;;
7074;SDS011;3578;51.568;6.932;2023-04-06T06:00:05;23.43;;;14.00;;
7074;SDS011;3578;51.568;6.932;2023-04-06T06:02:34;30.33;;;14.57;;
7074;SDS011;3578;51.568;6.932;2023-04-06T06:05:02;20.27;;;14.30;;
7074;SDS011;3578;51.568;6.932;2023-04-06T06:07:29;20.03;;;14.53;;
7074;SDS011;3578;51.568;6.932;2023-04-06T06:09:56;30.37;;;15.10;;
7074;SDS011;3578;51.568;6.932;2023-04-06T06:12:24;18.80;;;14.53;;
7074;SDS011;3578;51.568;6.932;2023-04-06T06:14:51;26.60;;;13.40;;
7074;SDS011;3578;51.568;6.932;2023-04-06T06:17:19;19.80;;;13.50;;
7074;SDS011;3578;51.568;6.932;2023-04-06T06:19:47;19.13;;;14.50;;
7074;SDS011;3578;51.568;6.932;2023-04-06T06:22:14;64.63;;;15.90;;
7074;SDS011;3578;51.568;6.932;2023-04-06T06:24:41;43.00;;;14.70;;
7074;SDS011;3578;51.568;6.932;2023-04-06T06:27:08;26.30;;;14.67;;
7074;SDS011;3578;51.568;6.932;2023-04-06T06:29:35;20.10;;;13.50;;
7074;SDS011;3578;51.568;6.932;2023-04-06T06:32:02;24.17;;;13.73;;
7074;SDS011;3578;51.568;6.932;2023-04-06T06:34:30;19.60;;;13.10;;
7074;SDS011;3578;51.568;6.932;2023-04-06T06:36:57;23.70;;;13.07;;
7074;SDS011;3578;51.568;6.932;2023-04-06T06:39:24;22.07;;;13.63;;
7074;SDS011;3578;51.568;6.932;2023-04-06T06:41:51;18.37;;;11.87;;
7074;SDS011;3578;51.568;6.932;2023-04-06T06:44:19;32.60;;;13.40;;
7074;SDS011;3578;51.568;6.932;2023-04-06T06:46:47;27.63;;;13.73;;
7074;SDS011;3578;51.568;6.932;2023-04-06T06:49:14;27.40;;;14.90;;
7074;SDS011;3578;51.568;6.932;2023-04-06T06:51:43;26.20;;;13.93;;
7074;SDS011;3578;51.568;6.932;2023-04-06T06:54:11;19.37;;;12.63;;
7074;SDS011;3578;51.568;6.932;2023-04-06T06:56:38;31.57;;;14.27;;
7074;SDS011;3578;51.568;6.932;2023-04-06T06:59:05;20.20;;;14.77;;
7074;SDS011;3578;51.568;6.932;2023-04-06T07:01:33;21.57;;;13.70;;
7074;SDS011;3578;51.568;6.932;2023-04-06T07:04:00;18.73;;;15.10;;
7074;SDS011;3578;51.568;6.932;2023-04-06T07:06:27;17.87;;;14.33;;
7074;SDS011;3578;51.568;6.932;2023-04-06T07:08:56;18.07;;;13.17;;
7074;SDS011;3578;51.568;6.932;2023-04-06T07:11:23;15.67;;;13.00;;
7074;SDS011;3578;51.568;6.932;2023-04-06T07:13:51;18.37;;;12.30;;
7074;SDS011;3578;51.568;6.932;2023-04-06T07:16:18;16.13;;;12.23;;
7074;SDS011;3578;51.568;6.932;2023-04-06T07:18:45;15.37;;;12.07;;
7074;SDS011;3578;51.568;6.932;2023-04-06T07:21:13;15.43;;;12.80;;
7074;SDS011;3578;51.568;6.932;2023-04-06T07:23:40;14.87;;;12.07;;
7074;SDS011;3578;51.568;6.932;2023-04-06T07:26:09;12.93;;;11.43;;
7074;SDS011;3578;51.568;6.932;2023-04-06T07:28:36;17.37;;;10.50;;
7074;SDS011;3578;51.568;6.932;2023-04-06T07:31:03;19.90;;;11.00;;
7074;SDS011;3578;51.568;6.932;2023-04-06T07:33:30;10.90;;;9.80;;
7074;SDS011;3578;51.568;6.932;2023-04-06T07:35:58;14.00;;;10.07;;
7074;SDS011;3578;51.568;6.932;2023-04-06T07:38:25;16.50;;;9.80;;
7074;SDS011;3578;51.568;6.932;2023-04-06T07:40:52;13.13;;;9.33;;
7074;SDS011;3578;51.568;6.932;2023-04-06T07:43:20;12.27;;;10.60;;
7074;SDS011;3578;51.568;6.932;2023-04-06T07:45:47;12.47;;;9.80;;
7074;SDS011;3578;51.568;6.932;2023-04-06T07:48:15;13.20;;;10.07;;
7074;SDS011;3578;51.568;6.932;2023-04-06T07:50:42;13.43;;;9.47;;
7074;SDS011;3578;51.568;6.932;2023-04-06T07:53:09;14.33;;;8.93;;
7074;SDS011;3578;51.568;6.932;2023-04-06T07:55:36;16.87;;;10.50;;
7074;SDS011;3578;51.568;6.932;2023-04-06T07:58:03;14.17;;;9.73;;
7074;SDS011;3578;51.568;6.932;2023-04-06T08:00:33;16.57;;;11.07;;
7074;SDS011;3578;51.568;6.932;2023-04-06T08:03:00;13.13;;;9.27;;
7074;SDS011;3578;51.568;6.932;2023-04-06T08:05:27;11.43;;;9.00;;
7074;SDS011;3578;51.568;6.932;2023-04-06T08:07:54;11.63;;;9.77;;
7074;SDS011;3578;51.568;6.932;2023-04-06T08:10:22;15.93;;;10.77;;
7074;SDS011;3578;51.568;6.932;2023-04-06T08:12:49;11.57;;;9.60;;
7074;SDS011;3578;51.568;6.932;2023-04-06T08:15:16;13.53;;;10.40;;
7074;SDS011;3578;51.568;6.932;2023-04-06T08:17:45;13.00;;;9.53;;
7074;SDS011;3578;51.568;6.932;2023-04-06T08:20:12;14.67;;;10.83;;
7074;SDS011;3578;51.568;6.932;2023-04-06T08:22:39;14.17;;;10.70;;
7074;SDS011;3578;51.568;6.932;2023-04-06T08:25:07;15.33;;;10.93;;
7074;SDS011;3578;51.568;6.932;2023-04-06T08:27:34;15.60;;;10.90;;
7074;SDS011;3578;51.568;6.932;2023-04-06T08:30:01;18.03;;;12.00;;
7074;SDS011;3578;51.568;6.932;2023-04-06T08:32:28;14.70;;;11.13;;
7074;SDS011;3578;51.568;6.932;2023-04-06T08:34:57;17.10;;;11.50;;
7074;SDS011;3578;51.568;6.932;2023-04-06T08:37:24;15.00;;;11.80;;
7074;SDS011;3578;51.568;6.932;2023-04-06T08:39:51;14.10;;;11.33;;
7074;SDS011;3578;51.568;6.932;2023-04-06T08:42:19;18.00;;;11.40;;
7074;SDS011;3578;51.568;6.932;2023-04-06T08:44:48;14.63;;;11.20;;
7074;SDS011;3578;51.568;6.932;2023-04-06T08:47:17;15.27;;;10.60;;
7074;SDS011;3578;51.568;6.932;2023-04-06T08:49:45;15.03;;;11.07;;
7074;SDS011;3578;51.568;6.932;2023-04-06T08:52:14;16.10;;;11.80;;
7074;SDS011;3578;51.568;6.932;2023-04-06T08:54:43;15.70;;;12.00;;
7074;SDS011;3578;51.568;6.932;2023-04-06T08:57:10;13.57;;;11.20;;
7074;SDS011;3578;51.568;6.932;2023-04-06T08:59:38;17.50;;;11.30;;
7074;SDS011;3578;51.568;6.932;2023-04-06T09:02:06;13.40;;;11.30;;
7074;SDS011;3578;51.568;6.932;2023-04-06T09:04:38;18.50;;;11.73;;
7074;SDS011;3578;51.568;6.932;2023-04-06T09:07:05;17.53;;;10.70;;
7074;SDS011;3578;51.568;6.932;2023-04-06T09:09:34;15.47;;;12.13;;
7074;SDS011;3578;51.568;6.932;2023-04-06T09:12:02;12.93;;;11.33;;
7074;SDS011;3578;51.568;6.932;2023-04-06T09:14:34;13.90;;;11.03;;
7074;SDS011;3578;51.568;6.932;2023-04-06T09:17:03;16.80;;;11.17;;
7074;SDS011;3578;51.568;6.932;2023-04-06T09:19:32;12.83;;;11.30;;
7074;SDS011;3578;51.568;6.932;2023-04-06T09:22:03;15.77;;;12.30;;
7074;SDS011;3578;51.568;6.932;2023-04-06T09:24:43;15.47;;;12.07;;
7074;SDS011;3578;51.568;6.932;2023-04-06T09:27:12;14.33;;;10.50;;
7074;SDS011;3578;51.568;6.932;2023-04-06T09:29:41;20.33;;;12.67;;
7074;SDS011;3578;51.568;6.932;2023-04-06T09:32:10;22.23;;;13.57;;
7074;SDS011;3578;51.568;6.932;2023-04-06T09:34:41;18.80;;;12.90;;
7074;SDS011;3578;51.568;6.932;2023-04-06T09:37:13;16.20;;;12.33;;
7074;SDS011;3578;51.568;6.932;2023-04-06T09:39:43;14.33;;;11.70;;
7074;SDS011;3578;51.568;6.932;2023-04-06T09:42:11;23.50;;;13.20;;
7074;SDS011;3578;51.568;6.932;2023-04-06T09:44:49;16.40;;;12.53;;
7074;SDS011;3578;51.568;6.932;2023-04-06T09:47:16;17.17;;;11.90;;
7074;SDS011;3578;51.568;6.932;2023-04-06T09:49:44;14.67;;;12.13;;
7074;SDS011;3578;51.568;6.932;2023-04-06T09:52:14;14.80;;;12.47;;
7074;SDS011;3578;51.568;6.932;2023-04-06T09:54:44;16.20;;;12.03;;
7074;SDS011;3578;51.568;6.932;2023-04-06T09:57:19;19.27;;;13.87;;
7074;SDS011;3578;51.568;6.932;2023-04-06T09:59:55;16.40;;;12.20;;
7074;SDS011;3578;51.568;6.932;2023-04-06T10:02:34;18.60;;;13.50;;
7074;SDS011;3578;51.568;6.932;2023-04-06T10:05:13;15.57;;;13.00;;
7074;SDS011;3578;51.568;6.932;2023-04-06T10:07:46;25.37;;;16.83;;
7074;SDS011;3578;51.568;6.932;2023-04-06T10:10:18;19.47;;;12.70;;
7074;SDS011;3578;51.568;6.932;2023-04-06T10:12:45;17.07;;;12.70;;
7074;SDS011;3578;51.568;6.932;2023-04-06T10:15:14;17.20;;;13.00;;
7074;SDS011;3578;51.568;6.932;2023-04-06T10:17:42;17.10;;;12.37;;
7074;SDS011;3578;51.568;6.932;2023-04-06T10:20:10;17.63;;;13.40;;
7074;SDS011;3578;51.568;6.932;2023-04-06T10:22:49;16.83;;;12.30;;
7074;SDS011;3578;51.568;6.932;2023-04-06T10:25:32;16.80;;;12.90;;
7074;SDS011;3578;51.568;6.932;2023-04-06T10:28:00;14.97;;;11.80;;
7074;SDS011;3578;51.568;6.932;2023-04-06T10:30:30;18.67;;;13.73;;
7074;SDS011;3578;51.568;6.932;2023-04-06T10:32:58;14.10;;;11.90;;
7074;SDS011;3578;51.568;6.932;2023-04-06T10:35:36;16.43;;;11.50;;
7074;SDS011;3578;51.568;6.932;2023-04-06T10:38:04;14.97;;;12.60;;
7074;SDS011;3578;51.568;6.932;2023-04-06T10:40:35;15.13;;;12.00;;
7074;SDS011;3578;51.568;6.932;2023-04-06T10:43:07;18.67;;;13.23;;
7074;SDS011;3578;51.568;6.932;2023-04-06T10:45:36;19.90;;;13.70;;
7074;SDS011;3578;51.568;6.932;2023-04-06T10:48:12;22.03;;;13.70;;
7074;SDS011;3578;51.568;6.932;2023-04-06T10:50:41;23.90;;;12.60;;
7074;SDS011;3578;51.568;6.932;2023-04-06T10:53:09;17.80;;;14.10;;
7074;SDS011;3578;51.568;6.932;2023-04-06T10:55:39;18.63;;;13.57;;
7074;SDS011;3578;51.568;6.932;2023-04-06T10:58:07;15.47;;;12.70;;
7074;SDS011;3578;51.568;6.932;2023-04-06T11:00:34;16.50;;;12.77;;
7074;SDS011;3578;51.568;6.932;2023-04-06T11:03:02;16.87;;;12.97;;
7074;SDS011;3578;51.568;6.932;2023-04-06T11:05:29;18.77;;;14.10;;
7074;SDS011;3578;51.568;6.932;2023-04-06T11:07:56;19.07;;;12.73;;
7074;SDS011;3578;51.568;6.932;2023-04-06T11:10:23;20.37;;;12.80;;
7074;SDS011;3578;51.568;6.932;2023-04-06T11:12:55;17.20;;;12.83;;
7074;SDS011;3578;51.568;6.932;2023-04-06T11:15:22;18.80;;;12.90;;
7074;SDS011;3578;51.568;6.932;2023-04-06T11:17:50;18.20;;;13.00;;
7074;SDS011;3578;51.568;6.932;2023-04-06T11:20:17;19.00;;;13.10;;
7074;SDS011;3578;51.568;6.932;2023-04-06T11:22:48;20.30;;;12.37;;
7074;SDS011;3578;51.568;6.932;2023-04-06T11:25:17;16.67;;;12.77;;
7074;SDS011;3578;51.568;6.932;2023-04-06T11:27:44;18.90;;;14.37;;
7074;SDS011;3578;51.568;6.932;2023-04-06T11:30:14;17.83;;;13.40;;
7074;SDS011;3578;51.568;6.932;2023-04-06T11:32:42;18.57;;;14.10;;
7074;SDS011;3578;51.568;6.932;2023-04-06T11:35:19;20.73;;;13.10;;
7074;SDS011;3578;51.568;6.932;2023-04-06T11:37:47;21.37;;;13.40;;
7074;SDS011;3578;51.568;6.932;2023-04-06T11:40:15;19.30;;;13.07;;
7074;SDS011;3578;51.568;6.932;2023-04-06T11:42:51;23.40;;;14.37;;
7074;SDS011;3578;51.568;6.932;2023-04-06T11:45:21;19.53;;;13.27;;
7074;SDS011;3578;51.568;6.932;2023-04-06T11:47:55;19.17;;;13.50;;
7074;SDS011;3578;51.568;6.932;2023-04-06T11:50:24;21.77;;;14.10;;
7074;SDS011;3578;51.568;6.932;2023-04-06T11:52:58;20.47;;;13.83;;
7074;SDS011;3578;51.568;6.932;2023-04-06T11:55:26;21.37;;;14.17;;
7074;SDS011;3578;51.568;6.932;2023-04-06T11:57:54;19.77;;;13.70;;
7074;SDS011;3578;51.568;6.932;2023-04-06T12:00:22;18.87;;;12.83;;
7074;SDS011;3578;51.568;6.932;2023-04-06T12:02:49;18.63;;;13.13;;
7074;SDS011;3578;51.568;6.932;2023-04-06T12:05:17;22.43;;;13.93;;
7074;SDS011;3578;51.568;6.932;2023-04-06T12:07:44;18.20;;;13.13;;
7074;SDS011;3578;51.568;6.932;2023-04-06T12:10:11;20.33;;;13.43;;
7074;SDS011;3578;51.568;6.932;2023-04-06T12:12:38;18.70;;;13.77;;
7074;SDS011;3578;51.568;6.932;2023-04-06T12:15:06;22.13;;;13.27;;
7074;SDS011;3578;51.568;6.932;2023-04-06T12:17:35;19.10;;;13.93;;
7074;SDS011;3578;51.568;6.932;2023-04-06T12:20:03;19.63;;;14.10;;
7074;SDS011;3578;51.568;6.932;2023-04-06T12:22:31;22.13;;;14.73;;
7074;SDS011;3578;51.568;6.932;2023-04-06T12:24:58;19.97;;;14.37;;
7074;SDS011;3578;51.568;6.932;2023-04-06T12:27:25;20.97;;;14.20;;
7074;SDS011;3578;51.568;6.932;2023-04-06T12:29:53;21.87;;;14.13;;
7074;SDS011;3578;51.568;6.932;2023-04-06T12:32:20;20.50;;;14.30;;
7074;SDS011;3578;51.568;6.932;2023-04-06T12:34:50;22.80;;;13.60;;
7074;SDS011;3578;51.568;6.932;2023-04-06T12:37:18;21.80;;;14.90;;
7074;SDS011;3578;51.568;6.932;2023-04-06T12:39:46;22.27;;;14.40;;
7074;SDS011;3578;51.568;6.932;2023-04-06T12:42:13;20.30;;;14.50;;
7074;SDS011;3578;51.568;6.932;2023-04-06T12:44:40;19.87;;;14.70;;
7074;SDS011;3578;51.568;6.932;2023-04-06T12:47:08;20.10;;;15.33;;
7074;SDS011;3578;51.568;6.932;2023-04-06T12:49:36;18.30;;;14.50;;
7074;SDS011;3578;51.568;6.932;2023-04-06T12:52:04;17.87;;;14.73;;
7074;SDS011;3578;51.568;6.932;2023-04-06T12:54:31;20.00;;;14.30;;
7074;SDS011;3578;51.568;6.932;2023-04-06T12:56:58;19.53;;;14.03;;
7074;SDS011;3578;51.568;6.932;2023-04-06T12:59:25;21.83;;;14.43;;
7074;SDS011;3578;51.568;6.932;2023-04-06T13:01:59;19.90;;;14.80;;
7074;SDS011;3578;51.568;6.932;2023-04-06T13:04:26;22.17;;;17.10;;
7074;SDS011;3578;51.568;6.932;2023-04-06T13:06:54;20.40;;;14.03;;
7074;SDS011;3578;51.568;6.932;2023-04-06T13:09:22;19.10;;;13.80;;
7074;SDS011;3578;51.568;6.932;2023-04-06T13:11:49;20.10;;;13.27;;
7074;SDS011;3578;51.568;6.932;2023-04-06T13:14:16;19.50;;;15.00;;
7074;SDS011;3578;51.568;6.932;2023-04-06T13:16:44;21.27;;;13.33;;
7074;SDS011;3578;51.568;6.932;2023-04-06T13:19:11;20.90;;;12.97;;
7074;SDS011;3578;51.568;6.932;2023-04-06T13:21:38;20.73;;;14.57;;
7074;SDS011;3578;51.568;6.932;2023-04-06T13:24:05;19.33;;;13.07;;
7074;SDS011;3578;51.568;6.932;2023-04-06T13:26:34;20.63;;;13.10;;
7074;SDS011;3578;51.568;6.932;2023-04-06T13:29:01;19.03;;;12.63;;
7074;SDS011;3578;51.568;6.932;2023-04-06T13:31:29;17.40;;;12.30;;
7074;SDS011;3578;51.568;6.932;2023-04-06T13:33:56;20.23;;;12.20;;
7074;SDS011;3578;51.568;6.932;2023-04-06T13:36:23;17.67;;;11.00;;
7074;SDS011;3578;51.568;6.932;2023-04-06T13:38:51;16.27;;;11.07;;
7074;SDS011;3578;51.568;6.932;2023-04-06T13:41:20;15.07;;;9.90;;
7074;SDS011;3578;51.568;6.932;2023-04-06T13:43:51;9.53;;;8.30;;
7074;SDS011;3578;51.568;6.932;2023-04-06T13:46:18;13.70;;;9.40;;
7074;SDS011;3578;51.568;6.932;2023-04-06T13:48:45;12.70;;;9.83;;
7074;SDS011;3578;51.568;6.932;2023-04-06T13:51:13;16.50;;;10.37;;
7074;SDS011;3578;51.568;6.932;2023-04-06T13:53:41;11.77;;;9.40;;
7074;SDS011;3578;51.568;6.932;2023-04-06T13:56:07;14.63;;;9.97;;
7074;SDS011;3578;51.568;6.932;2023-04-06T13:58:35;13.00;;;10.50;;
7074;SDS011;3578;51.568;6.932;2023-04-06T14:01:04;13.73;;;10.90;;
7074;SDS011;3578;51.568;6.932;2023-04-06T14:03:32;11.10;;;9.90;;
7074;SDS011;3578;51.568;6.932;2023-04-06T14:05:59;14.13;;;11.17;;
7074;SDS011;3578;51.568;6.932;2023-04-06T14:08:26;17.33;;;10.47;;
7074;SDS011;3578;51.568;6.932;2023-04-06T14:10:54;12.37;;;9.43;;
7074;SDS011;3578;51.568;6.932;2023-04-06T14:13:21;9.93;;;8.40;;
7074;SDS011;3578;51.568;6.932;2023-04-06T14:15:52;11.80;;;9.07;;
7074;SDS011;3578;51.568;6.932;2023-04-06T14:18:21;11.80;;;9.23;;
7074;SDS011;3578;51.568;6.932;2023-04-06T14:20:53;10.00;;;8.97;;
7074;SDS011;3578;51.568;6.932;2023-04-06T14:23:21;17.83;;;8.60;;
7074;SDS011;3578;51.568;6.932;2023-04-06T14:25:48;11.17;;;8.27;;
7074;SDS011;3578;51.568;6.932;2023-04-06T14:28:15;9.47;;;8.47;;
7074;SDS011;3578;51.568;6.932;2023-04-06T14:30:42;9.77;;;8.77;;
7074;SDS011;3578;51.568;6.932;2023-04-06T14:33:09;10.77;;;9.30;;
7074;SDS011;3578;51.568;6.932;2023-04-06T14:35:39;11.23;;;8.70;;
7074;SDS011;3578;51.568;6.932;2023-04-06T14:38:06;9.70;;;8.53;;
7074;SDS011;3578;51.568;6.932;2023-04-06T14:40:34;12.43;;;9.13;;
7074;SDS011;3578;51.568;6.932;2023-04-06T14:43:02;10.07;;;8.80;;
7074;SDS011;3578;51.568;6.932;2023-04-06T14:45:32;10.73;;;9.20;;
7074;SDS011;3578;51.568;6.932;2023-04-06T14:48:01;10.23;;;7.80;;
7074;SDS011;3578;51.568;6.932;2023-04-06T14:50:28;11.87;;;9.17;;
7074;SDS011;3578;51.568;6.932;2023-04-06T14:52:56;13.63;;;9.67;;
7074;SDS011;3578;51.568;6.932;2023-04-06T14:55:23;9.53;;;8.47;;